Terminal Aerodrome Forecast
Issued by NWS

Home | Current Version | Previous Version | Text Only | Print | Product List | Glossary On
Versions: 1 2 3 4 5 6 7 8 9 10 11 12 13 14 15 16 17 18 19 20 21 22 23 24 25
355
FTUS41 KOKX 041126
TAFHPN
TAF
KHPN 041126Z 0412/0512 VRB04KT 6SM -SHRA SCT010 OVC025
     FM041400 08006KT 5SM -SHRA BR SCT010 OVC015
     FM041700 08010G15KT 4SM -SHRA BR SCT006 OVC012
     FM042300 06010G17KT 2SM -DZ BR SCT005 OVC008
      AMD NOT SKED=

USA.gov is the U.S. government's official web portal to all federal, state and local government web resources and services.